Terminal Aerodrome Forecast
Issued by NWS Denver/Boulder, CO

Home | Current Version | Previous Version | Text Only | Print | Product List | Glossary On
Versions: 1 2 3 4 5 6 7 8 9 10 11 12 13 14 15 16 17 18 19 20 21 22 23 24 25 26 27 28 29 30 31 32 33 34 35 36 37 38 39 40 41 42 43 44 45 46 47 48 49 50
000
FTUS45 KBOU 020435 AAB
TAFDEN
TAF AMD
KDEN 020435Z 0205/0306 13007KT P6SM VCSH OVC100
      TEMPO 0205/0207 5SM -SN SCT030 OVC060
     FM020700 16008KT P6SM SCT020 BKN120
     FM021200 28005KT 3SM BR SCT005 BKN200
      TEMPO 0213/0216 1/2SM FZFG BKN005
     FM021700 VRB05KT P6SM SCT015 SCT080 BKN200
     FM022100 35006KT P6SM FEW080 BKN200
     FM030200 22009KT P6SM FEW080 BKN200=

USA.gov is the U.S. government's official web portal to all federal, state and local government web resources and services.